createdAt,value
2023-02-13T00:01:48.474Z,0.2
2023-02-13T00:06:48.470Z,0.2
2023-02-13T00:11:48.480Z,0.2
2023-02-13T00:16:48.474Z,0.2
2023-02-13T00:21:48.435Z,0.2
2023-02-13T00:26:48.750Z,0.2
2023-02-13T00:31:48.547Z,0.3
2023-02-13T00:36:48.560Z,0.2
2023-02-13T00:41:49.038Z,0.2
2023-02-13T00:46:48.554Z,0.2
2023-02-13T00:51:48.485Z,0.2
2023-02-13T00:56:48.578Z,0.1
2023-02-13T01:01:48.458Z,0.2
2023-02-13T01:06:48.472Z,0.1
2023-02-13T01:11:48.493Z,0.2
2023-02-13T01:17:52.054Z,0.1
2023-02-13T01:21:49.142Z,0.2
2023-02-13T01:26:48.810Z,0.2
2023-02-13T01:31:48.688Z,0.3
2023-02-13T01:36:48.531Z,0.2
2023-02-13T01:41:48.508Z,0.3
2023-02-13T01:46:48.560Z,0.2
2023-02-13T01:51:49.728Z,0.2
2023-02-13T01:56:48.755Z,0.2
2023-02-13T02:01:49.044Z,0.2
2023-02-13T02:06:48.962Z,0.3
2023-02-13T02:11:48.545Z,0.2
2023-02-13T02:16:48.495Z,0.2
2023-02-13T02:21:48.463Z,0.2
2023-02-13T02:26:48.737Z,0.3
2023-02-13T02:31:48.537Z,0.3
2023-02-13T02:36:48.548Z,0.2
2023-02-13T02:41:49.960Z,0.2
2023-02-13T02:46:48.580Z,0.2
2023-02-13T02:51:49.570Z,0.3
2023-02-13T02:56:48.580Z,0.3
2023-02-13T03:01:48.673Z,0.2
2023-02-13T03:06:48.842Z,0.2
2023-02-13T03:11:48.527Z,0.2
2023-02-13T03:16:48.500Z,0.2
2023-02-13T03:21:48.493Z,0.2
2023-02-13T03:26:49.039Z,0.2
2023-02-13T03:31:48.551Z,0.2
2023-02-13T03:36:48.570Z,0.2
2023-02-13T03:41:48.698Z,0.1
2023-02-13T03:46:48.521Z,0.1
2023-02-13T03:51:48.487Z,0.1
2023-02-13T03:56:49.030Z,0.2
2023-02-13T04:01:48.612Z,0.2
2023-02-13T04:06:48.544Z,0.2
2023-02-13T04:11:48.511Z,0.2
2023-02-13T04:16:48.606Z,0.2
2023-02-13T04:21:48.515Z,0.2
2023-02-13T04:26:48.516Z,0.3
2023-02-13T04:31:48.618Z,0.2
2023-02-13T04:36:48.513Z,0.3
2023-02-13T04:41:48.531Z,0.3
2023-02-13T04:46:48.524Z,0.2
2023-02-13T04:51:48.524Z,0.1
2023-02-13T04:56:48.807Z,0.2
2023-02-13T05:01:48.535Z,0.2
2023-02-13T05:06:48.547Z,0.2
2023-02-13T05:11:48.503Z,0.3
2023-02-13T05:16:48.544Z,0.2
2023-02-13T05:21:48.556Z,0.3
2023-02-13T05:26:48.660Z,0.3
2023-02-13T05:31:48.711Z,0.3
2023-02-13T05:36:48.705Z,0.2
2023-02-13T05:41:48.606Z,0.3
2023-02-13T05:46:48.767Z,0.3
2023-02-13T05:51:48.542Z,0.3
2023-02-13T05:56:48.549Z,0.2
2023-02-13T06:01:48.824Z,0.3
2023-02-13T06:06:49.117Z,0.2
2023-02-13T06:11:48.512Z,0.2
2023-02-13T06:16:48.852Z,0.2
2023-02-13T06:21:48.557Z,0.2
2023-02-13T06:26:48.525Z,0.3
2023-02-13T06:31:50.151Z,0.4
2023-02-13T06:36:48.698Z,0.5
2023-02-13T06:41:48.548Z,0.5
2023-02-13T06:46:48.586Z,0.6
2023-02-13T06:51:48.561Z,0.7
2023-02-13T06:56:48.554Z,0.1
2023-02-13T07:01:48.536Z,0.11
2023-02-13T07:06:48.581Z,0.13
2023-02-13T07:11:48.916Z,0.15
2023-02-13T07:16:49.021Z,0.17
2023-02-13T07:21:48.546Z,0.21
2023-02-13T07:26:48.565Z,0.23
2023-02-13T07:31:48.550Z,0.25
2023-02-13T07:36:49.702Z,0.29
2023-02-13T07:41:48.638Z,0.31
2023-02-13T07:46:48.613Z,0.31
2023-02-13T07:51:48.582Z,0.31
2023-02-13T07:56:48.600Z,0.34
2023-02-13T08:01:48.608Z,1
2023-02-13T08:06:48.588Z,2.29
2023-02-13T08:11:48.527Z,1.16
2023-02-13T08:16:48.628Z,1.96
2023-02-13T08:21:48.564Z,2.57
2023-02-13T08:26:48.559Z,4.1
2023-02-13T08:31:48.581Z,5.5
2023-02-13T08:36:48.590Z,5.38
2023-02-13T08:41:48.601Z,5.12
2023-02-13T08:46:48.553Z,5.87
2023-02-13T08:51:48.573Z,5.5
2023-02-13T08:56:48.616Z,5.65
2023-02-13T09:01:48.672Z,7.55
2023-02-13T09:06:48.612Z,6.92
2023-02-13T09:11:48.563Z,6.83
2023-02-13T09:16:49.121Z,7.68
2023-02-13T09:21:48.557Z,7.45
2023-02-13T09:26:48.557Z,7.85
2023-02-13T09:31:48.738Z,7.6
2023-02-13T09:36:48.635Z,7.69
2023-02-13T09:41:48.566Z,7.28
2023-02-13T09:46:48.670Z,7.84
2023-02-13T09:51:48.610Z,7.7
2023-02-13T09:56:48.535Z,7.6
2023-02-13T10:01:48.638Z,2.18
2023-02-13T10:06:48.603Z,0.41
2023-02-13T10:11:48.623Z,0.39
2023-02-13T10:16:48.595Z,0.37
2023-02-13T10:21:48.575Z,0.35
2023-02-13T10:26:48.697Z,0.35
2023-02-13T10:31:48.721Z,0.34
2023-02-13T10:36:48.689Z,0.33
2023-02-13T10:41:48.983Z,0.33
2023-02-13T10:46:48.644Z,0.33
2023-02-13T10:56:57.695Z,0.32
2023-02-13T11:01:48.655Z,0.34
2023-02-13T11:06:48.597Z,0.35
2023-02-13T11:11:48.549Z,0.33
2023-02-13T11:16:48.593Z,0.34
2023-02-13T11:21:48.657Z,0.38
2023-02-13T11:26:48.612Z,0.51
2023-02-13T11:31:48.674Z,0.76
2023-02-13T11:36:48.584Z,0.69
2023-02-13T11:41:48.586Z,0.5
2023-02-13T11:46:48.642Z,0.43
2023-02-13T11:51:48.583Z,0.42
2023-02-13T11:57:03.635Z,0.35
2023-02-13T12:01:48.566Z,0.45
2023-02-13T12:06:48.682Z,0.45
2023-02-13T12:11:48.666Z,0.89
2023-02-13T12:16:48.741Z,0.33
2023-02-13T12:21:51.217Z,0.29
2023-02-13T12:26:48.634Z,0.27
2023-02-13T12:31:48.832Z,0.27
2023-02-13T12:36:48.621Z,0.28
2023-02-13T12:41:48.879Z,0.28
2023-02-13T12:46:48.624Z,0.32
2023-02-13T12:51:48.601Z,0.28
2023-02-13T12:56:48.835Z,0.25
2023-02-13T13:01:48.630Z,0.24
2023-02-13T13:06:48.626Z,0.36
2023-02-13T13:11:48.620Z,0.28
2023-02-13T13:16:48.638Z,0.41
2023-02-13T13:21:48.626Z,0.23
2023-02-13T13:26:48.643Z,0.22
2023-02-13T13:31:48.768Z,0.21
2023-02-13T13:36:48.674Z,0.21
2023-02-13T13:41:48.636Z,0.22
2023-02-13T13:46:48.678Z,0.38
2023-02-13T13:51:48.680Z,0.24
2023-02-13T13:56:48.665Z,0.21
2023-02-13T14:01:48.735Z,0.2
2023-02-13T14:06:48.634Z,0.21
2023-02-13T14:11:58.047Z,0.2
2023-02-13T14:16:49.227Z,0.19
2023-02-13T14:21:53.945Z,0.18
2023-02-13T14:26:57.872Z,0.17
2023-02-13T14:31:48.678Z,0.17
2023-02-13T14:36:48.675Z,0.17
2023-02-13T14:41:48.619Z,0.19
2023-02-13T14:46:50.113Z,0.16
2023-02-13T14:51:48.748Z,0.15
2023-02-13T14:56:48.721Z,0.15
2023-02-13T15:01:50.275Z,0.15
2023-02-13T15:06:48.663Z,0.13
2023-02-13T15:11:48.653Z,0.13
2023-02-13T15:16:48.735Z,0.12
2023-02-13T15:21:48.713Z,0.11
2023-02-13T15:26:48.638Z,0.11
2023-02-13T15:31:48.743Z,0.1
2023-02-13T15:36:48.666Z,0.9
2023-02-13T15:41:48.641Z,0.8
2023-02-13T15:46:48.804Z,0.8
2023-02-13T15:51:48.696Z,0.7
2023-02-13T15:56:48.685Z,0.6
2023-02-13T16:01:50.787Z,0.6
2023-02-13T16:06:48.691Z,0.5
2023-02-13T16:11:48.676Z,0.5
2023-02-13T16:16:48.706Z,0.4
2023-02-13T16:26:56.676Z,0.3
2023-02-13T16:31:56.687Z,0.2
2023-02-13T16:36:56.686Z,0.2
2023-02-13T16:41:56.722Z,0.2
2023-02-13T16:46:56.648Z,0.1
2023-02-13T16:51:56.993Z,0.2
2023-02-13T16:56:56.717Z,0.1
2023-02-13T17:01:56.669Z,0.3
2023-02-13T17:06:56.745Z,0.2
2023-02-13T17:11:56.637Z,0.2
2023-02-13T17:16:56.653Z,0.2
2023-02-13T17:21:56.945Z,0.2
2023-02-13T17:26:56.622Z,0.2
2023-02-13T17:31:56.708Z,0.2
2023-02-13T17:36:56.714Z,0.2
2023-02-13T17:41:56.677Z,0.1
2023-02-13T17:46:56.667Z,0.2
2023-02-13T18:01:56.721Z,0.2
2023-02-13T18:06:56.698Z,0.2
2023-02-13T18:16:56.718Z,0.2
2023-02-13T18:21:56.716Z,0.1
2023-02-13T18:26:56.914Z,0.2
2023-02-13T18:31:56.860Z,0.2
2023-02-13T18:36:56.679Z,0.3
2023-02-13T18:41:56.683Z,0.2
2023-02-13T18:46:56.722Z,0.2
2023-02-13T18:51:56.766Z,0.2
2023-02-13T18:56:56.712Z,0.2
2023-02-13T19:01:56.684Z,0.2
2023-02-13T19:06:56.708Z,0.2
2023-02-13T19:11:56.692Z,0.2
2023-02-13T19:16:56.685Z,0.2
2023-02-13T19:21:56.759Z,0.2
2023-02-13T19:26:56.658Z,0.2
2023-02-13T19:31:56.725Z,0.2
2023-02-13T19:36:56.710Z,0.2
2023-02-13T19:41:56.698Z,0.2
2023-02-13T19:46:57.746Z,0.2
2023-02-13T19:51:56.681Z,0.3
2023-02-13T19:56:56.748Z,0.2
2023-02-13T20:01:56.870Z,0.2
2023-02-13T20:06:56.711Z,0.2
2023-02-13T20:11:56.735Z,0.2
2023-02-13T20:16:56.733Z,0.2
2023-02-13T20:21:56.687Z,0.2
2023-02-13T20:26:56.715Z,0.2
2023-02-13T20:31:56.813Z,0.2
2023-02-13T20:36:57.217Z,0.1
2023-02-13T20:41:56.743Z,0.2
2023-02-13T20:46:56.763Z,0.2
2023-02-13T20:51:56.739Z,0.2
2023-02-13T20:56:56.752Z,0.2
2023-02-13T21:01:56.701Z,0.1
2023-02-13T21:06:56.695Z,0.2
2023-02-13T21:11:57.014Z,0.3
2023-02-13T21:16:56.689Z,0.2
2023-02-13T21:21:56.695Z,0.3
2023-02-13T21:26:56.757Z,0.1
2023-02-13T21:31:57.856Z,0.2
2023-02-13T21:36:56.733Z,0.2
2023-02-13T21:41:56.726Z,0.2
2023-02-13T21:46:56.824Z,0.2
2023-02-13T21:51:56.761Z,0.2
2023-02-13T21:56:57.863Z,0.1
2023-02-13T22:01:56.902Z,0.2
2023-02-13T22:06:56.754Z,0.1
2023-02-13T22:11:56.782Z,0.1
2023-02-13T22:16:56.919Z,0.2
2023-02-13T22:21:56.763Z,0.2
2023-02-13T22:26:56.787Z,0.2
2023-02-13T22:31:57.155Z,0.3
2023-02-13T22:36:56.762Z,0.2
2023-02-13T22:41:56.814Z,0.3
2023-02-13T22:46:56.821Z,0.2
2023-02-13T22:51:56.743Z,0.2
2023-02-13T22:56:56.799Z,0.2
2023-02-13T23:01:56.765Z,0.2
2023-02-13T23:06:58.241Z,0.2
2023-02-13T23:11:57.755Z,0.2
2023-02-13T23:16:59.291Z,0.2
2023-02-13T23:21:57.741Z,0.2
2023-02-13T23:26:57.705Z,0.2
2023-02-13T23:31:58.152Z,0.2
2023-02-13T23:36:58.204Z,0.2
2023-02-13T23:41:58.110Z,0.2
2023-02-13T23:46:57.726Z,0.3
2023-02-13T23:51:57.745Z,0.2
2023-02-13T23:56:57.792Z,0.3
